Renton, Washington
Current Conditions -  °F | °C
As of 5:53 AM on Friday 19 Dec 2014 (Local Time) from KRNT Reporting Station
Overcast Overcast  
Wind Chill: 46°   Ceiling: 6000
Heat Index: 46°   Visibility: 10mi
Dew Point: 45°   Wind: 3mph
Humidity: 96%   Direction: 110°ESE
Pressure: 29.85"   Gusts: NA
Location:  47.48°N, 122.2°W
Report Text: KRNT 191353Z AUTO 11003KT 10SM FEW041 OVC060 08/07 A2985 RMK AO2 SLP113 T00780072
Loading
Personal Weather Stations






























Interactive Weather Map New forecast layout! Learn more

10-Day Weather Forecast

Advertisements
Track Severe Weather on mobile